Binscarth, Canada
Current Conditions -  °F | °C
As of 8:00 PM on Sunday 23 Nov 2014 (Local Time) from CYQV Reporting Station
Clear Clear  
Wind Chill: -16°   Ceiling: Unl
Heat Index:   Visibility: 9mi
Dew Point: -6°   Wind: 9mph
Humidity: 78%   Direction: 300°WNW
Pressure: 29.83"   Gusts: NA
Location:  50.62°N, 101.28°W
Report Text: CYQV 240200Z AUTO 30008KT 9SM CLR M18/M21 A2983 RMK SLP149
Loading
Personal Weather Stations






























Interactive Weather Map New forecast layout! Learn more

10-Day Weather Forecast

Advertisements
Track Severe Weather on mobile